Time;durP1;ratioP1;P1;durP2;ratioP2;P2;SDS_P1;SDS_P2;PMS_P1;PMS_P2;Temp;Humidity;BMP_temperature;BMP_pressure;BME280_temperature;BME280_humidity;BME280_pressure;Samples;Min_cycle;Max_cycle;Signal;HPM_P1;HPM_P2
2022/05/03 00:00:14;;;;;;;3.67;3.05;;;;;;;9.22;71.17;94604.31;5053381;28;20032;-69
2022/05/03 00:02:40;;;;;;;6.10;3.35;;;;;;;9.13;70.21;94609.28;5033391;28;20095;-69
2022/05/03 00:05:08;;;;;;;3.17;2.83;;;;;;;9.13;70.21;94608.47;5051647;28;20032;-69
2022/05/03 00:08:28;;;;;;;3.30;3.00;;;;;;;9.13;70.67;94598.13;5023323;28;20066;-70
2022/05/03 00:11:03;;;;;;;4.15;3.13;;;;;;;9.09;70.71;94601.91;4954058;28;20039;-70
2022/05/03 00:13:32;;;;;;;4.07;2.97;;;;;;;9.05;71.06;94613.44;4938140;28;20126;-69
2022/05/03 00:15:57;;;;;;;4.38;2.90;;;;;;;9.10;70.84;94608.72;5005974;28;20039;-69
2022/05/03 00:18:23;;;;;;;3.90;3.00;;;;;;;9.00;70.29;94610.41;5033314;28;20025;-69
2022/05/03 00:20:48;;;;;;;3.83;2.80;;;;;;;8.99;70.17;94608.75;5033379;28;20036;-69
2022/05/03 00:23:14;;;;;;;4.20;2.97;;;;;;;8.96;71.05;94617.59;5049629;28;20035;-69
2022/05/03 00:25:40;;;;;;;4.32;3.13;;;;;;;9.02;71.69;94604.16;5035942;28;20039;-69
2022/05/03 00:28:05;;;;;;;5.05;4.10;;;;;;;8.97;70.87;94611.50;5020055;28;20445;-69
2022/05/03 00:30:31;;;;;;;3.75;3.08;;;;;;;8.81;71.79;94605.88;5036183;28;20413;-69
2022/05/03 00:32:56;;;;;;;3.85;3.00;;;;;;;8.81;72.85;94611.88;5036384;28;20437;-69
2022/05/03 00:35:22;;;;;;;3.65;3.10;;;;;;;8.81;72.58;94609.28;5052479;28;20032;-70
2022/05/03 00:37:47;;;;;;;3.60;3.10;;;;;;;8.79;72.92;94597.41;5036177;28;20029;-70
2022/05/03 00:40:13;;;;;;;4.05;3.30;;;;;;;8.94;73.22;94609.97;5052497;28;20353;-70
2022/05/03 00:42:40;;;;;;;4.00;3.25;;;;;;;8.92;72.71;94617.03;5036408;28;20035;-69
2022/05/03 00:45:18;;;;;;;5.90;3.35;;;;;;;8.98;72.58;94612.31;5052803;28;20031;-70
2022/05/03 00:47:50;;;;;;;5.03;3.30;;;;;;;8.85;73.08;94604.69;5070825;28;20037;-70
2022/05/03 00:50:16;;;;;;;3.85;3.35;;;;;;;8.86;73.68;94611.50;5052946;28;20028;-70
2022/05/03 00:52:50;;;;;;;3.55;3.10;;;;;;;8.92;72.95;94601.50;5052552;28;20043;-69
2022/05/03 00:55:16;;;;;;;3.90;3.10;;;;;;;8.89;72.56;94608.69;5052611;28;20021;-70
2022/05/03 00:58:19;;;;;;;4.53;3.30;;;;;;;8.87;72.99;94603.63;5052376;28;20429;-70
2022/05/03 01:01:04;;;;;;;3.80;3.40;;;;;;;8.77;72.50;94599.28;5070981;28;20101;-70
2022/05/03 01:03:50;;;;;;;4.00;3.10;;;;;;;8.73;72.83;94596.13;5037003;28;20060;-69
2022/05/03 01:06:22;;;;;;;5.18;3.40;;;;;;;8.73;72.59;94598.72;5002594;28;20414;-69
2022/05/03 01:09:14;;;;;;;4.65;3.47;;;;;;;8.61;72.32;94574.59;5070256;28;20040;-69
2022/05/03 01:11:46;;;;;;;4.25;3.30;;;;;;;8.79;71.73;94593.03;5048239;28;20044;-70
2022/05/03 01:14:24;;;;;;;3.67;3.03;;;;;;;8.80;72.15;94597.25;5070069;28;20025;-69
2022/05/03 01:16:58;;;;;;;3.63;3.20;;;;;;;8.72;72.42;94587.53;5070627;28;20060;-69
2022/05/03 01:19:47;;;;;;;4.57;3.08;;;;;;;8.73;72.22;94586.56;5036524;28;20024;-69
2022/05/03 01:22:56;;;;;;;3.45;3.00;;;;;;;8.77;72.70;94581.97;5070113;28;20051;-70
2022/05/03 01:25:43;;;;;;;5.35;3.33;;;;;;;8.77;71.93;94588.91;5003135;28;20068;-69
2022/05/03 01:28:23;;;;;;;4.43;3.17;;;;;;;8.78;71.90;94593.19;5039316;28;20048;-69
2022/05/03 01:30:49;;;;;;;5.37;3.50;;;;;;;8.77;71.44;94578.56;5070596;28;20112;-69
2022/05/03 01:33:29;;;;;;;4.32;3.00;;;;;;;8.69;71.50;94586.94;5035878;28;20336;-69
2022/05/03 01:35:56;;;;;;;4.05;3.15;;;;;;;8.76;71.71;94582.91;5037345;28;20086;-69
2022/05/03 01:38:39;;;;;;;4.85;3.65;;;;;;;8.79;71.68;94587.84;5035802;28;20037;-70
2022/05/03 01:41:18;;;;;;;4.15;3.08;;;;;;;8.85;71.31;94583.97;5036307;28;20529;-69
2022/05/03 01:44:02;;;;;;;3.25;2.65;;;;;;;8.83;71.19;94584.09;5054023;28;20033;-69
2022/05/03 01:46:35;;;;;;;3.38;3.05;;;;;;;8.71;71.84;94578.09;5053882;28;20072;-70
2022/05/03 01:52:29;;;;;;;3.20;2.75;;;;;;;8.66;71.06;94582.00;5027147;28;20048;-70
2022/05/03 01:55:07;;;;;;;3.40;3.00;;;;;;;8.58;72.51;94580.03;5036969;28;20029;-70
2022/05/03 01:57:50;;;;;;;3.10;2.58;;;;;;;8.49;72.08;94581.53;5036007;28;20037;-69
2022/05/03 02:00:16;;;;;;;4.88;3.13;;;;;;;8.44;72.48;94578.53;5036355;28;20029;-69
2022/05/03 02:02:56;;;;;;;3.38;3.03;;;;;;;8.34;73.22;94576.72;5035686;28;20037;-69
2022/05/03 02:05:53;;;;;;;4.13;2.88;;;;;;;8.29;73.38;94575.31;5035844;28;20033;-69
2022/05/03 02:08:23;;;;;;;3.40;3.10;;;;;;;8.23;72.85;94568.03;5046011;28;20119;-70
2022/05/03 02:11:03;;;;;;;4.35;3.10;;;;;;;8.39;73.00;94574.66;5055789;28;20094;-70
2022/05/03 02:17:00;;;;;;;3.88;3.13;;;;;;;8.30;73.67;94573.53;5073146;28;20043;-71
2022/05/03 02:20:03;;;;;;;5.25;3.00;;;;;;;8.13;73.78;94577.44;5055165;28;20108;-69
2022/05/03 02:22:40;;;;;;;4.20;3.20;;;;;;;8.16;74.63;94579.81;5073021;28;20054;-70
2022/05/03 02:25:07;;;;;;;3.28;2.97;;;;;;;8.15;74.43;94577.31;5073509;28;20492;-70
2022/05/03 02:27:32;;;;;;;3.88;3.03;;;;;;;8.26;74.39;94562.63;5072524;28;20047;-70
2022/05/03 02:29:58;;;;;;;4.55;3.00;;;;;;;8.21;73.99;94566.50;5038318;28;20028;-70
2022/05/03 02:32:36;;;;;;;4.63;3.60;;;;;;;8.30;72.95;94563.19;5022066;28;20035;-70
2022/05/03 02:35:05;;;;;;;4.88;3.35;;;;;;;8.30;72.97;94570.94;5038905;28;20040;-69
2022/05/03 02:37:36;;;;;;;3.20;2.88;;;;;;;8.26;72.93;94566.97;5054913;28;20041;-70
2022/05/03 02:40:11;;;;;;;3.40;3.10;;;;;;;8.26;73.07;94564.38;5055118;28;20111;-69
2022/05/03 02:42:37;;;;;;;3.95;3.25;;;;;;;8.29;73.09;94566.72;5055499;28;20505;-70
2022/05/03 02:45:03;;;;;;;3.33;3.00;;;;;;;8.31;73.39;94556.28;5035014;28;20029;-69
2022/05/03 02:47:54;;;;;;;3.67;3.30;;;;;;;8.37;73.37;94566.97;5034898;28;20033;-70
2022/05/03 02:50:21;;;;;;;;;;;;;;;8.29;73.38;94562.38;5022327;28;20059;-69
2022/05/03 02:53:01;;;;;;;3.70;3.28;;;;;;;8.21;73.49;94559.56;5034821;28;20002;-69
2022/05/03 02:55:45;;;;;;;3.65;3.35;;;;;;;8.20;73.68;94564.88;5052971;28;20512;-69
2022/05/03 02:58:34;;;;;;;4.32;3.35;;;;;;;8.14;74.11;94560.97;5052539;28;20028;-70
2022/05/03 03:04:21;;;;;;;4.07;3.33;;;;;;;8.12;74.39;94564.63;5064589;28;20087;-70
2022/05/03 03:06:46;;;;;;;5.10;3.28;;;;;;;8.17;74.23;94567.69;5038705;28;20041;-71
2022/05/03 03:09:15;;;;;;;5.30;3.40;;;;;;;8.21;73.65;94561.31;5037471;28;20024;-70
2022/05/03 03:11:55;;;;;;;4.53;3.30;;;;;;;8.23;73.54;94567.22;5021397;28;20137;-71
2022/05/03 03:14:35;;;;;;;3.78;3.47;;;;;;;8.24;73.64;94564.47;5038937;28;20029;-70
2022/05/03 03:17:05;;;;;;;3.50;3.20;;;;;;;8.26;74.11;94570.38;5055986;28;20566;-70
2022/05/03 03:19:39;;;;;;;4.80;3.70;;;;;;;8.31;73.97;94575.22;5037905;28;20036;-70
2022/05/03 03:22:12;;;;;;;4.63;3.60;;;;;;;8.39;74.03;94565.09;5072156;28;20040;-71
2022/05/03 03:24:38;;;;;;;3.63;3.33;;;;;;;8.45;73.49;94571.56;5052973;28;20025;-71
2022/05/03 03:27:05;;;;;;;3.72;3.35;;;;;;;8.49;73.76;94570.38;5052613;28;20036;-71
2022/05/03 03:29:31;;;;;;;3.65;3.13;;;;;;;8.55;73.77;94575.06;5053983;28;20036;-70
2022/05/03 03:31:58;;;;;;;6.15;3.55;;;;;;;8.57;74.03;94569.78;5037472;28;20040;-70
2022/05/03 03:34:24;;;;;;;3.90;3.60;;;;;;;8.47;73.92;94560.16;5054274;28;20073;-70
2022/05/03 03:36:49;;;;;;;4.30;3.67;;;;;;;8.57;73.89;94564.59;5037387;28;20548;-71
2022/05/03 03:39:15;;;;;;;4.32;3.53;;;;;;;8.60;73.40;94572.13;5052778;28;20025;-70
2022/05/03 03:41:40;;;;;;;4.20;3.80;;;;;;;8.61;73.40;94578.94;5071845;28;20029;-70
2022/05/03 03:44:05;;;;;;;4.15;3.60;;;;;;;8.61;73.17;94571.16;5037212;28;20021;-71
2022/05/03 03:46:32;;;;;;;5.70;3.70;;;;;;;8.59;73.22;94575.66;5053751;28;20032;-71
2022/05/03 03:48:58;;;;;;;4.03;3.58;;;;;;;8.65;72.52;94573.41;5071524;28;20025;-71
2022/05/03 03:51:23;;;;;;;3.60;3.28;;;;;;;8.60;71.58;94572.94;5053588;28;20040;-70
2022/05/03 03:53:48;;;;;;;3.42;3.10;;;;;;;8.73;69.93;94578.00;5036672;28;20101;-70
2022/05/03 03:56:14;;;;;;;4.10;3.05;;;;;;;8.63;70.84;94584.84;5037139;28;20478;-70
2022/05/03 03:58:39;;;;;;;5.03;3.50;;;;;;;8.62;71.58;94580.59;5052476;28;20043;-71
2022/05/03 04:01:05;;;;;;;3.60;3.30;;;;;;;8.56;72.11;94581.09;5071119;28;20375;-71
2022/05/03 04:03:31;;;;;;;5.95;3.65;;;;;;;8.60;71.40;94591.06;5049858;28;20562;-70
2022/05/03 04:05:56;;;;;;;5.05;3.30;;;;;;;8.62;70.90;94585.78;5016390;28;20086;-72
2022/05/03 04:08:22;;;;;;;3.60;3.30;;;;;;;8.65;71.16;94586.34;5039342;28;20036;-70
2022/05/03 04:10:49;;;;;;;5.00;3.40;;;;;;;8.66;70.88;94587.19;5036579;28;20024;-71
2022/05/03 04:13:14;;;;;;;4.13;3.28;;;;;;;8.57;71.23;94593.91;5060424;28;20456;-70
2022/05/03 04:15:40;;;;;;;4.45;4.05;;;;;;;8.61;72.24;94595.31;5046852;28;20032;-70
2022/05/03 04:18:08;;;;;;;7.97;3.95;;;;;;;8.66;72.80;94597.53;5037709;28;20021;-70
2022/05/03 04:20:34;;;;;;;5.72;4.18;;;;;;;8.65;73.36;94585.53;5034465;28;20110;-71
2022/05/03 04:22:59;;;;;;;4.10;3.70;;;;;;;8.73;73.91;94594.34;5054393;28;20063;-71
2022/05/03 04:25:25;;;;;;;4.72;3.55;;;;;;;8.83;73.73;94597.03;5070993;28;20032;-70
2022/05/03 04:27:50;;;;;;;5.85;3.03;;;;;;;8.76;73.45;94590.69;5070593;28;20440;-71
2022/05/03 04:30:25;;;;;;;3.30;3.00;;;;;;;8.76;73.64;94593.28;5052831;28;20512;-70
2022/05/03 04:32:50;;;;;;;3.63;3.33;;;;;;;8.67;73.55;94594.03;5063868;28;20044;-71
2022/05/03 04:35:16;;;;;;;3.78;3.47;;;;;;;8.69;74.26;94589.53;5045432;28;20413;-71
2022/05/03 04:37:41;;;;;;;3.85;3.45;;;;;;;8.75;74.12;94602.00;5066346;28;20483;-70
2022/05/03 04:40:07;;;;;;;4.25;3.55;;;;;;;8.78;74.18;94594.00;5035267;28;20115;-70
2022/05/03 04:42:33;;;;;;;3.95;3.55;;;;;;;8.69;74.01;94586.94;5052839;28;20032;-71
2022/05/03 04:44:58;;;;;;;3.63;3.28;;;;;;;8.78;72.92;94591.41;5067307;28;20028;-70
2022/05/03 04:47:24;;;;;;;3.90;3.50;;;;;;;8.88;72.74;94592.28;5050169;28;20387;-69
2022/05/03 04:49:49;;;;;;;4.63;4.20;;;;;;;8.87;72.94;94589.84;5070685;28;20032;-71
2022/05/03 04:52:15;;;;;;;4.75;4.03;;;;;;;8.83;72.80;94589.28;5070670;28;20037;-73
2022/05/03 04:54:40;;;;;;;4.03;3.63;;;;;;;8.82;71.56;94591.97;5052732;28;20482;-71
2022/05/03 04:57:06;;;;;;;3.30;2.70;;;;;;;8.94;70.78;94604.78;5032080;28;20056;-71
2022/05/03 04:59:32;;;;;;;3.65;3.22;;;;;;;8.92;71.69;94598.91;5032844;28;20029;-71
2022/05/03 05:01:57;;;;;;;3.13;2.58;;;;;;;8.86;71.36;94594.22;5031308;28;20063;-71
2022/05/03 05:04:23;;;;;;;2.95;2.65;;;;;;;8.92;68.71;94604.06;5052658;28;20559;-70
2022/05/03 05:06:49;;;;;;;3.65;2.50;;;;;;;8.86;69.51;94612.34;5052419;28;20032;-70
2022/05/03 05:09:14;;;;;;;3.25;2.80;;;;;;;8.79;69.54;94600.00;5069724;28;20410;-71
2022/05/03 05:11:40;;;;;;;4.43;3.05;;;;;;;8.76;70.47;94608.81;5037351;28;20036;-71
2022/05/03 05:14:05;;;;;;;4.50;2.72;;;;;;;8.76;68.95;94603.66;5074527;28;20054;-71
2022/05/03 05:16:30;;;;;;;3.20;2.90;;;;;;;8.78;67.96;94601.75;5056584;28;20498;-70
2022/05/03 05:18:56;;;;;;;4.25;2.80;;;;;;;8.69;70.99;94600.72;5039252;28;20024;-71
2022/05/03 05:21:21;;;;;;;3.70;2.45;;;;;;;8.71;71.06;94604.00;5056120;28;20512;-70
2022/05/03 05:23:47;;;;;;;3.50;2.97;;;;;;;8.67;68.42;94600.00;5056588;28;20021;-70
2022/05/03 05:26:12;;;;;;;3.70;3.10;;;;;;;8.64;69.20;94610.63;5074145;28;20033;-71
2022/05/03 05:28:38;;;;;;;6.07;2.88;;;;;;;8.46;67.45;94597.31;5056205;28;20036;-71
2022/05/03 05:31:03;;;;;;;3.60;2.53;;;;;;;8.55;69.21;94616.50;5039790;28;20032;-71
2022/05/03 05:33:29;;;;;;;3.78;2.97;;;;;;;8.57;72.23;94613.78;5039740;28;20036;-71
2022/05/03 05:35:54;;;;;;;3.15;2.85;;;;;;;8.57;72.83;94611.22;5067746;28;20249;-71
2022/05/03 05:38:20;;;;;;;5.20;4.30;;;;;;;8.55;73.23;94613.09;5074096;28;20413;-71
2022/05/03 05:40:46;;;;;;;4.63;3.13;;;;;;;8.63;71.75;94608.94;5056149;28;20024;-71
2022/05/03 05:43:12;;;;;;;4.40;3.00;;;;;;;8.70;71.57;94596.38;5055913;28;20439;-71
2022/05/03 05:45:38;;;;;;;4.72;3.47;;;;;;;8.78;69.61;94611.31;5019475;28;20036;-71
2022/05/03 05:48:04;;;;;;;9.23;6.05;;;;;;;8.87;70.60;94607.97;5019692;28;20028;-71
2022/05/03 05:50:30;;;;;;;12.82;9.20;;;;;;;9.03;70.87;94611.00;5037815;28;20067;-71
2022/05/03 05:55:39;;;;;;;2.85;2.60;;;;;;;9.23;69.18;94617.16;5058326;28;20048;-72
2022/05/03 05:58:05;;;;;;;3.25;2.22;;;;;;;9.31;66.89;94617.38;5039199;28;20021;-71
2022/05/03 06:00:31;;;;;;;2.95;2.45;;;;;;;9.42;67.72;94626.88;5055332;28;20040;-71
2022/05/03 06:15:42;;;;;;;5.10;2.67;;;;;;;10.28;61.40;94633.59;5148971;27;20384;-70
2022/05/03 06:18:08;;;;;;;3.45;2.40;;;;;;;10.44;65.48;94637.47;5129069;27;20044;-72
2022/05/03 06:20:34;;;;;;;2.65;2.10;;;;;;;10.39;60.52;94639.63;5132157;27;20058;-75
2022/05/03 06:22:59;;;;;;;3.60;2.20;;;;;;;10.28;63.50;94620.63;5130203;27;20027;-78
2022/05/03 06:25:25;;;;;;;3.17;2.20;;;;;;;10.37;63.64;94638.97;5133618;27;20027;-71
2022/05/03 06:27:53;;;;;;;3.67;2.60;;;;;;;10.24;63.54;94626.16;5131954;27;20028;-70
2022/05/03 06:30:19;;;;;;;2.83;2.10;;;;;;;10.31;63.72;94629.94;5135246;27;20563;-71
2022/05/03 06:32:45;;;;;;;3.17;2.15;;;;;;;10.36;62.45;94632.13;5126488;27;20023;-71
2022/05/03 06:35:11;;;;;;;2.70;2.15;;;;;;;10.43;63.69;94636.66;5128596;27;20416;-69
2022/05/03 06:37:37;;;;;;;2.55;2.20;;;;;;;10.48;64.39;94644.88;5114310;28;20032;-70
2022/05/03 06:40:06;;;;;;;3.25;2.10;;;;;;;10.51;64.48;94646.41;5119201;27;20032;-70
2022/05/03 06:42:35;;;;;;;2.28;1.90;;;;;;;10.31;62.89;94629.94;5121751;28;20066;-70
2022/05/03 06:45:00;;;;;;;2.50;1.98;;;;;;;10.48;62.57;94651.88;5126269;27;20042;-69
2022/05/03 06:47:27;;;;;;;2.45;1.90;;;;;;;10.43;62.67;94649.66;5127258;27;20015;-70
2022/05/03 06:49:53;;;;;;;2.67;1.80;;;;;;;10.40;62.13;94649.09;5126648;27;20037;-70
2022/05/03 06:52:20;;;;;;;6.03;2.30;;;;;;;10.40;63.81;94659.47;5126067;28;20023;-70
2022/05/03 06:54:46;;;;;;;3.13;2.50;;;;;;;10.44;63.93;94656.47;5114334;27;20048;-69
2022/05/03 06:57:11;;;;;;;2.88;2.10;;;;;;;10.39;62.95;94653.47;5123837;28;20457;-70
2022/05/03 06:59:38;;;;;;;2.92;2.20;;;;;;;10.34;64.20;94650.44;5128187;27;20054;-69
2022/05/03 07:02:03;;;;;;;2.80;2.28;;;;;;;10.27;64.76;94657.09;5126470;27;20028;-69
2022/05/03 07:04:29;;;;;;;2.78;2.13;;;;;;;10.16;64.08;94644.97;5127920;27;20507;-70
2022/05/03 07:06:54;;;;;;;3.92;2.40;;;;;;;10.19;62.61;94667.25;5131579;27;20428;-70
2022/05/03 07:09:20;;;;;;;4.43;2.78;;;;;;;10.20;63.45;94661.94;5103976;28;20028;-70
2022/05/03 07:11:45;;;;;;;3.53;2.75;;;;;;;10.34;61.59;94662.59;5109964;28;20024;-69
2022/05/03 07:14:10;;;;;;;3.88;2.50;;;;;;;10.24;62.22;94665.91;5115281;28;20056;-70
2022/05/03 07:16:36;;;;;;;3.05;2.75;;;;;;;10.21;62.25;94662.75;5099486;27;20031;-70
2022/05/03 07:24:29;;;;;;;3.75;2.90;;;;;;;10.11;64.96;94665.28;5110858;27;20130;-72
2022/05/03 07:26:55;;;;;;;3.88;3.00;;;;;;;10.16;63.27;94657.94;5092580;28;20028;-76
2022/05/03 07:29:21;;;;;;;3.22;2.40;;;;;;;10.27;61.57;94672.66;5095232;28;20027;-79
2022/05/03 07:31:47;;;;;;;3.20;2.72;;;;;;;9.92;62.52;94654.78;5113018;28;20464;-80
2022/05/03 07:34:12;;;;;;;5.38;2.92;;;;;;;10.04;63.47;94671.97;5117337;27;20054;-78
2022/05/03 07:36:39;;;;;;;3.17;2.60;;;;;;;10.11;63.53;94680.88;5107531;28;20081;-70
2022/05/03 07:39:04;;;;;;;4.05;2.58;;;;;;;9.96;63.45;94676.97;5096721;28;20474;-74
2022/05/03 07:41:30;;;;;;;3.00;2.67;;;;;;;9.96;64.15;94677.78;5111670;27;20015;-69
2022/05/03 07:43:55;;;;;;;3.88;2.75;;;;;;;9.95;65.48;94675.31;5113248;28;20036;-78
2022/05/03 07:46:20;;;;;;;4.70;2.90;;;;;;;10.10;65.52;94683.59;5111393;27;20024;-71
2022/05/03 07:48:46;;;;;;;3.13;2.70;;;;;;;10.11;66.24;94674.84;5105333;28;20424;-71
2022/05/03 07:51:12;;;;;;;3.78;2.97;;;;;;;10.11;64.69;94675.66;5118792;27;20420;-71
2022/05/03 07:53:39;;;;;;;2.92;2.63;;;;;;;10.12;65.25;94682.53;5107650;27;20032;-70
2022/05/03 07:56:04;;;;;;;4.15;2.95;;;;;;;10.13;64.87;94686.75;5111550;27;20115;-70
2022/05/03 07:58:30;;;;;;;3.55;2.70;;;;;;;10.24;64.29;94686.69;5092761;28;20123;-70
2022/05/03 08:00:56;;;;;;;3.47;2.70;;;;;;;10.28;62.94;94695.91;5108575;28;20027;-69
2022/05/03 08:03:21;;;;;;;4.78;2.55;;;;;;;10.24;64.21;94685.88;5105363;27;20042;-69
2022/05/03 08:05:47;;;;;;;3.20;2.90;;;;;;;10.25;65.38;94693.53;5110774;28;20016;-70
2022/05/03 08:08:13;;;;;;;3.53;2.63;;;;;;;10.19;65.04;94699.22;5106818;27;20034;-69
2022/05/03 08:10:38;;;;;;;3.03;2.60;;;;;;;10.25;65.65;94696.13;5104067;28;20028;-71
2022/05/03 08:13:04;;;;;;;3.30;2.40;;;;;;;10.32;65.15;94696.47;5072593;28;20578;-71
2022/05/03 08:15:29;;;;;;;2.92;2.22;;;;;;;10.37;63.74;94690.91;5091336;28;20187;-70
2022/05/03 08:17:55;;;;;;;2.50;1.98;;;;;;;10.38;63.70;94695.94;5088825;28;20112;-70
2022/05/03 08:20:20;;;;;;;2.75;2.10;;;;;;;10.47;63.03;94699.53;5107744;28;20042;-70
2022/05/03 08:22:45;;;;;;;4.63;3.30;;;;;;;10.37;63.64;94691.72;5092059;28;20031;-77
2022/05/03 08:25:11;;;;;;;2.58;1.80;;;;;;;10.50;63.72;94702.72;5085362;28;20032;-70
2022/05/03 08:27:38;;;;;;;2.38;1.83;;;;;;;10.58;66.06;94699.47;5099252;28;20055;-69
2022/05/03 08:30:10;;;;;;;4.05;2.10;;;;;;;10.71;64.93;94705.28;5107526;28;20038;-69
2022/05/03 08:32:35;;;;;;;2.95;2.00;;;;;;;10.65;64.36;94704.97;5109113;28;20027;-70
2022/05/03 08:35:01;;;;;;;2.70;2.00;;;;;;;10.51;64.63;94698.34;5087344;28;20043;-69
2022/05/03 08:42:54;;;;;;;2.92;1.90;;;;;;;10.43;63.53;94701.59;5094197;28;20157;-69
2022/05/03 08:45:20;;;;;;;1.92;1.65;;;;;;;10.20;63.03;94694.88;5110820;27;20039;-75
2022/05/03 08:47:47;;;;;;;2.45;2.10;;;;;;;10.09;63.98;94698.34;5108754;27;20067;-69
2022/05/03 08:50:12;;;;;;;4.57;2.20;;;;;;;10.10;65.16;94699.19;5075785;28;20028;-71
2022/05/03 08:52:48;;;;;;;2.80;2.03;;;;;;;10.07;65.95;94700.25;5091821;27;20038;-69
2022/05/03 08:55:14;;;;;;;2.78;2.30;;;;;;;10.02;65.49;94699.81;5089477;27;20047;-70
2022/05/03 08:57:42;;;;;;;3.97;2.25;;;;;;;10.13;67.13;94704.09;5096545;27;20028;-70
2022/05/03 09:00:08;;;;;;;5.40;3.20;;;;;;;10.28;64.50;94708.91;5076489;27;20452;-70
2022/05/03 09:02:33;;;;;;;2.92;2.10;;;;;;;10.25;64.15;94697.88;5106182;27;20027;-70
2022/05/03 09:04:59;;;;;;;3.83;2.08;;;;;;;10.30;65.34;94698.38;5101152;27;20031;-70
2022/05/03 09:07:25;;;;;;;2.50;2.28;;;;;;;10.42;65.35;94706.91;5103579;27;20110;-70
2022/05/03 09:09:52;;;;;;;2.55;2.00;;;;;;;10.51;64.46;94704.38;5106593;28;20115;-71
2022/05/03 09:12:28;;;;;;;2.40;2.00;;;;;;;10.52;64.51;94712.97;5089397;28;20066;-71
2022/05/03 09:15:00;;;;;;;3.70;1.80;;;;;;;10.67;61.35;94713.44;5090420;28;20056;-71
2022/05/03 09:17:38;;;;;;;2.05;1.77;;;;;;;10.58;60.87;94709.03;5098753;28;20028;-71
2022/05/03 09:25:49;;;;;;;2.50;1.95;;;;;;;10.50;63.46;94713.13;5089628;28;20574;-71
2022/05/03 09:28:15;;;;;;;4.93;2.25;;;;;;;10.52;62.98;94707.78;5089160;28;20035;-71
2022/05/03 09:30:47;;;;;;;2.53;1.83;;;;;;;10.59;62.56;94706.31;5089373;28;20107;-71
2022/05/03 09:33:31;;;;;;;2.30;1.73;;;;;;;10.60;59.90;94705.34;5106100;28;20451;-71
2022/05/03 09:35:56;;;;;;;2.47;1.90;;;;;;;10.70;60.62;94698.44;5090654;28;20036;-71
2022/05/03 09:38:21;;;;;;;2.58;1.77;;;;;;;10.80;58.75;94687.25;5072711;28;20043;-70
2022/05/03 09:40:47;;;;;;;3.30;1.75;;;;;;;10.91;58.21;94700.16;5090317;28;20024;-71
2022/05/03 09:43:13;;;;;;;4.35;1.88;;;;;;;10.96;58.86;94691.00;5090973;28;20489;-71
2022/05/03 09:45:39;;;;;;;2.42;2.00;;;;;;;11.01;59.28;94695.81;5089954;28;20024;-71
2022/05/03 09:48:05;;;;;;;2.63;1.70;;;;;;;11.14;57.40;94686.00;5106788;28;20511;-71
2022/05/03 09:50:31;;;;;;;4.47;1.90;;;;;;;11.07;58.43;94695.28;5089886;28;20024;-71
2022/05/03 09:52:57;;;;;;;2.40;1.63;;;;;;;10.98;59.47;94692.63;5091031;28;20542;-71
2022/05/03 09:55:32;;;;;;;2.70;1.83;;;;;;;11.03;59.99;94693.91;5089855;28;20032;-71
2022/05/03 09:58:02;;;;;;;2.10;1.67;;;;;;;11.03;57.19;94675.72;5091007;28;20020;-76
2022/05/03 10:00:28;;;;;;;1.90;1.50;;;;;;;11.05;57.35;94693.75;5073158;28;20493;-72
2022/05/03 10:02:54;;;;;;;2.05;1.52;;;;;;;11.01;56.65;94690.63;5090948;28;20432;-74
2022/05/03 10:05:20;;;;;;;1.90;1.40;;;;;;;11.06;55.47;94679.78;5089608;28;20039;-74
2022/05/03 10:07:45;;;;;;;1.95;1.55;;;;;;;11.01;58.16;94689.78;5089771;28;20035;-74
2022/05/03 10:10:12;;;;;;;2.22;1.60;;;;;;;11.08;56.89;94690.91;5091277;28;20036;-73
2022/05/03 10:12:37;;;;;;;2.35;1.77;;;;;;;11.04;56.57;94685.16;5089758;28;20028;-73
2022/05/03 10:15:03;;;;;;;2.00;1.40;;;;;;;11.18;55.11;94683.94;5089539;28;20597;-73
2022/05/03 10:20:39;;;;;;;2.22;1.58;;;;;;;11.24;57.16;94678.22;5090111;28;20043;-73
2022/05/03 10:23:30;;;;;;;1.60;1.20;;;;;;;11.34;55.66;94683.44;5075817;28;20036;-73
2022/05/03 10:25:57;;;;;;;2.15;1.40;;;;;;;11.33;57.59;94682.59;5077563;28;20047;-74
2022/05/03 10:28:22;;;;;;;2.97;1.45;;;;;;;11.37;56.13;94673.59;5106372;28;20485;-73
2022/05/03 10:31:10;;;;;;;2.42;1.50;;;;;;;11.50;54.14;94678.50;5072626;28;20036;-73
2022/05/03 10:33:36;;;;;;;2.20;1.35;;;;;;;11.55;55.10;94683.31;5089486;28;20064;-73
2022/05/03 10:36:02;;;;;;;2.13;1.50;;;;;;;11.60;55.86;94670.72;5090716;28;20020;-74
2022/05/03 10:38:40;;;;;;;1.80;1.50;;;;;;;11.74;55.01;94661.69;5089414;28;20455;-73
2022/05/03 10:41:05;;;;;;;2.60;1.30;;;;;;;11.81;53.92;94662.75;5090645;28;20440;-73
2022/05/03 10:43:33;;;;;;;3.20;1.90;;;;;;;12.01;52.97;94669.63;5072433;28;20036;-73
2022/05/03 10:46:08;;;;;;;2.17;1.25;;;;;;;11.97;52.24;94670.03;5106081;28;20024;-73
2022/05/03 10:48:36;;;;;;;2.40;1.45;;;;;;;11.93;51.08;94666.91;5090736;28;20032;-73
2022/05/03 10:51:03;;;;;;;2.78;1.70;;;;;;;11.78;52.82;94673.44;5074705;28;20458;-74
2022/05/03 10:53:33;;;;;;;1.80;1.45;;;;;;;11.71;52.14;94675.78;5110015;28;20486;-74
2022/05/03 10:56:17;;;;;;;2.97;1.85;;;;;;;11.66;53.24;94670.16;5110104;28;20020;-73
2022/05/03 10:58:44;;;;;;;2.00;1.70;;;;;;;11.87;52.76;94670.06;5093102;28;20517;-74
2022/05/03 11:01:14;;;;;;;2.58;1.83;;;;;;;12.03;52.54;94657.28;5093092;28;20028;-73
2022/05/03 11:03:51;;;;;;;2.05;1.77;;;;;;;12.23;52.24;94662.44;5092888;28;20047;-74
2022/05/03 11:06:19;;;;;;;2.00;1.70;;;;;;;12.37;50.04;94663.78;5092799;28;20028;-74
2022/05/03 11:11:49;;;;;;;1.80;1.50;;;;;;;12.51;51.00;94661.56;5094045;28;20436;-74
2022/05/03 11:14:19;;;;;;;1.83;1.50;;;;;;;12.45;49.90;94656.94;5092508;28;20056;-74
2022/05/03 11:17:05;;;;;;;2.10;1.48;;;;;;;12.37;48.90;94654.22;5093903;28;20062;-74
2022/05/03 11:19:35;;;;;;;2.00;1.50;;;;;;;12.34;49.25;94651.03;5094273;28;20044;-74
2022/05/03 11:22:00;;;;;;;1.95;1.60;;;;;;;12.43;50.35;94652.81;5109584;28;20489;-74
2022/05/03 11:24:30;;;;;;;2.20;1.50;;;;;;;12.45;50.49;94638.69;5092467;28;20032;-74
2022/05/03 11:27:01;;;;;;;4.32;1.77;;;;;;;12.56;50.95;94637.66;5075996;28;20059;-74
2022/05/03 11:29:35;;;;;;;1.92;1.27;;;;;;;12.65;49.67;94646.44;5092855;28;20032;-74
2022/05/03 11:32:01;;;;;;;1.80;1.25;;;;;;;12.63;50.31;94648.34;5109426;28;20458;-74
2022/05/03 11:34:26;;;;;;;2.53;1.30;;;;;;;12.78;49.81;94649.50;5093899;28;20032;-74
2022/05/03 11:36:52;;;;;;;1.90;1.40;;;;;;;12.69;50.38;94646.00;5109297;28;20032;-76
2022/05/03 11:39:17;;;;;;;2.00;1.40;;;;;;;12.72;48.92;94644.88;5092368;28;20136;-73
2022/05/03 11:41:43;;;;;;;1.98;1.40;;;;;;;12.57;51.20;94633.31;5075598;28;20035;-73
2022/05/03 11:44:09;;;;;;;2.15;1.65;;;;;;;12.56;50.59;94648.09;5093477;28;20115;-74
2022/05/03 11:46:34;;;;;;;2.22;1.40;;;;;;;12.49;51.50;94652.25;5093614;28;20024;-75
2022/05/03 11:49:03;;;;;;;1.83;1.30;;;;;;;12.30;52.85;94642.72;5092139;28;20382;-73
2022/05/03 11:57:21;;;;;;;2.40;1.77;;;;;;;12.22;52.52;94646.00;5106523;28;20089;-73
2022/05/03 11:59:48;;;;;;;3.47;1.98;;;;;;;12.26;52.39;94642.16;5109031;28;20107;-73
2022/05/03 12:02:29;;;;;;;1.83;1.40;;;;;;;12.27;52.86;94643.00;5091749;28;20107;-73
2022/05/03 12:05:11;;;;;;;2.25;1.40;;;;;;;12.29;52.15;94647.09;5091983;28;20039;-73
2022/05/03 12:07:39;;;;;;;2.85;1.35;;;;;;;12.09;52.56;94642.91;5091738;28;20521;-74
2022/05/03 12:10:15;;;;;;;3.15;1.40;;;;;;;11.90;53.88;94635.94;5093254;28;20105;-73
2022/05/03 12:12:44;;;;;;;1.88;1.50;;;;;;;11.95;53.12;94643.31;5091691;28;20028;-73
2022/05/03 12:15:13;;;;;;;1.77;1.25;;;;;;;11.77;53.42;94640.59;5091357;28;20135;-73
2022/05/03 12:17:59;;;;;;;2.90;1.58;;;;;;;11.74;52.76;94638.25;5092778;28;20043;-73
2022/05/03 12:20:25;;;;;;;2.30;1.52;;;;;;;11.60;54.20;94642.91;5092581;28;20441;-73
2022/05/03 12:23:17;;;;;;;2.70;1.60;;;;;;;11.62;54.09;94654.00;5108323;28;20020;-73
2022/05/03 12:25:44;;;;;;;3.45;1.70;;;;;;;11.52;55.61;94655.78;5092651;28;20032;-73
2022/05/03 12:28:09;;;;;;;2.97;1.65;;;;;;;11.35;57.61;94648.66;5092519;28;20031;-73
2022/05/03 12:44:55;;;;;;;2.00;1.20;;;;;;;11.16;55.44;94670.25;5149647;27;20757;-71
2022/05/03 12:47:22;;;;;;;1.60;1.13;;;;;;;10.93;56.63;94672.25;5148409;27;20046;-71
2022/05/03 12:49:47;;;;;;;1.55;1.10;;;;;;;10.88;59.14;94669.22;5149737;27;20030;-72
2022/05/03 12:52:12;;;;;;;2.30;1.30;;;;;;;10.89;58.92;94666.50;5148294;27;20035;-71
2022/05/03 12:54:42;;;;;;;1.60;1.17;;;;;;;10.88;63.12;94669.22;5148453;27;20419;-72
2022/05/03 12:59:53;;;;;;;2.95;1.17;;;;;;;10.92;64.23;94675.78;5133954;27;20112;-71